Terminal Aerodrome Forecast
Issued by NWS Shreveport, LA

Home | Current Version | Previous Version | Text Only | Print | Product List | Glossary On
Versions: 1 2 3 4 5 6 7 8 9 10 11 12 13 14 15
420
FTUS44 KSHV 240520
TAFGGG
TAF
KGGG 240520Z 2406/2506 06005KT P6SM SCT045 BKN150 BKN250
     FM241100 07005KT P6SM BKN010
     FM241300 07005KT P6SM BKN015
     FM241600 07008KT P6SM SCT015 BKN030 BKN150
     FM241900 08009KT P6SM VCTS BKN040CB BKN150 BKN250
     FM250200 09006KT P6SM BKN120 BKN250=

USA.gov is the U.S. government's official web portal to all federal, state and local government web resources and services.